sensor_id;sensor_type;location;lat;lon;timestamp;P1;durP1;ratioP1;P2;durP2;ratioP2
44376;SDS011;30093;0.000;0.000;2022-11-11T00:00:17;145.73;;;58.90;;
44376;SDS011;30093;0.000;0.000;2022-11-11T00:04:24;120.60;;;55.22;;
44376;SDS011;30093;0.000;0.000;2022-11-11T00:08:33;104.82;;;59.00;;
44376;SDS011;30093;0.000;0.000;2022-11-11T00:12:40;130.43;;;61.85;;
44376;SDS011;30093;0.000;0.000;2022-11-11T00:16:46;108.47;;;57.58;;
44376;SDS011;30093;0.000;0.000;2022-11-11T00:21:12;106.55;;;55.10;;
44376;SDS011;30093;0.000;0.000;2022-11-11T00:25:39;128.70;;;60.10;;
44376;SDS011;30093;0.000;0.000;2022-11-11T00:29:46;93.20;;;49.28;;
44376;SDS011;30093;0.000;0.000;2022-11-11T00:33:53;93.80;;;48.05;;
44376;SDS011;30093;0.000;0.000;2022-11-11T00:38:07;77.03;;;42.33;;
44376;SDS011;30093;0.000;0.000;2022-11-11T00:42:15;79.90;;;43.50;;
44376;SDS011;30093;0.000;0.000;2022-11-11T00:46:22;75.35;;;41.28;;
44376;SDS011;30093;0.000;0.000;2022-11-11T00:50:48;74.57;;;42.88;;
44376;SDS011;30093;0.000;0.000;2022-11-11T00:55:04;65.40;;;36.55;;
44376;SDS011;30093;0.000;0.000;2022-11-11T00:59:11;70.75;;;40.22;;
44376;SDS011;30093;0.000;0.000;2022-11-11T01:03:18;62.10;;;35.15;;
44376;SDS011;30093;0.000;0.000;2022-11-11T01:07:25;53.40;;;32.28;;
44376;SDS011;30093;0.000;0.000;2022-11-11T01:11:32;55.97;;;33.75;;
44376;SDS011;30093;0.000;0.000;2022-11-11T01:15:39;55.00;;;33.97;;
44376;SDS011;30093;0.000;0.000;2022-11-11T01:19:47;71.43;;;35.42;;
44376;SDS011;30093;0.000;0.000;2022-11-11T01:23:56;53.55;;;32.67;;
44376;SDS011;30093;0.000;0.000;2022-11-11T01:28:02;58.15;;;35.25;;
44376;SDS011;30093;0.000;0.000;2022-11-11T01:32:10;57.85;;;34.75;;
44376;SDS011;30093;0.000;0.000;2022-11-11T01:36:18;60.78;;;35.17;;
44376;SDS011;30093;0.000;0.000;2022-11-11T01:40:26;67.10;;;37.05;;
44376;SDS011;30093;0.000;0.000;2022-11-11T01:44:40;84.38;;;43.38;;
44376;SDS011;30093;0.000;0.000;2022-11-11T01:53:25;75.45;;;43.10;;
44376;SDS011;30093;0.000;0.000;2022-11-11T01:57:34;64.78;;;38.97;;
44376;SDS011;30093;0.000;0.000;2022-11-11T02:01:54;70.95;;;40.15;;
44376;SDS011;30093;0.000;0.000;2022-11-11T02:06:01;75.75;;;43.65;;
44376;SDS011;30093;0.000;0.000;2022-11-11T02:10:08;71.38;;;39.60;;
44376;SDS011;30093;0.000;0.000;2022-11-11T02:14:15;87.93;;;46.00;;
44376;SDS011;30093;0.000;0.000;2022-11-11T02:18:57;75.47;;;42.88;;
44376;SDS011;30093;0.000;0.000;2022-11-11T02:23:17;85.72;;;50.20;;
44376;SDS011;30093;0.000;0.000;2022-11-11T02:27:29;84.43;;;45.55;;
44376;SDS011;30093;0.000;0.000;2022-11-11T02:31:39;76.35;;;46.65;;
44376;SDS011;30093;0.000;0.000;2022-11-11T02:35:48;70.65;;;39.40;;
44376;SDS011;30093;0.000;0.000;2022-11-11T02:40:01;62.35;;;35.88;;
44376;SDS011;30093;0.000;0.000;2022-11-11T02:44:12;71.63;;;40.90;;
44376;SDS011;30093;0.000;0.000;2022-11-11T02:48:18;56.97;;;34.85;;
44376;SDS011;30093;0.000;0.000;2022-11-11T02:52:25;54.50;;;34.63;;
44376;SDS011;30093;0.000;0.000;2022-11-11T02:56:32;58.45;;;34.63;;
44376;SDS011;30093;0.000;0.000;2022-11-11T03:00:57;56.63;;;31.80;;
44376;SDS011;30093;0.000;0.000;2022-11-11T03:05:04;48.08;;;30.60;;
44376;SDS011;30093;0.000;0.000;2022-11-11T03:09:11;50.08;;;30.08;;
44376;SDS011;30093;0.000;0.000;2022-11-11T03:13:17;58.25;;;35.10;;
44376;SDS011;30093;0.000;0.000;2022-11-11T03:17:24;51.92;;;32.33;;
44376;SDS011;30093;0.000;0.000;2022-11-11T03:21:46;58.65;;;34.13;;
44376;SDS011;30093;0.000;0.000;2022-11-11T03:25:53;57.35;;;33.88;;
44376;SDS011;30093;0.000;0.000;2022-11-11T03:30:00;61.03;;;35.80;;
44376;SDS011;30093;0.000;0.000;2022-11-11T03:34:06;55.97;;;35.25;;
44376;SDS011;30093;0.000;0.000;2022-11-11T03:38:25;54.88;;;35.65;;
44376;SDS011;30093;0.000;0.000;2022-11-11T03:42:32;57.03;;;35.50;;
44376;SDS011;30093;0.000;0.000;2022-11-11T03:46:39;58.53;;;36.42;;
44376;SDS011;30093;0.000;0.000;2022-11-11T03:50:46;55.78;;;36.00;;
44376;SDS011;30093;0.000;0.000;2022-11-11T03:54:53;58.35;;;35.78;;
44376;SDS011;30093;0.000;0.000;2022-11-11T03:59:00;60.15;;;37.00;;
44376;SDS011;30093;0.000;0.000;2022-11-11T04:03:11;51.63;;;32.72;;
44376;SDS011;30093;0.000;0.000;2022-11-11T04:07:38;62.88;;;40.25;;
44376;SDS011;30093;0.000;0.000;2022-11-11T04:12:04;57.53;;;35.58;;
44376;SDS011;30093;0.000;0.000;2022-11-11T04:16:11;64.50;;;38.22;;
44376;SDS011;30093;0.000;0.000;2022-11-11T04:20:19;64.38;;;39.88;;
44376;SDS011;30093;0.000;0.000;2022-11-11T04:24:44;59.28;;;38.40;;
44376;SDS011;30093;0.000;0.000;2022-11-11T04:29:09;57.88;;;36.88;;
44376;SDS011;30093;0.000;0.000;2022-11-11T04:33:33;55.10;;;35.30;;
44376;SDS011;30093;0.000;0.000;2022-11-11T04:37:44;73.53;;;45.90;;
44376;SDS011;30093;0.000;0.000;2022-11-11T04:41:54;65.97;;;42.60;;
44376;SDS011;30093;0.000;0.000;2022-11-11T04:46:00;60.70;;;38.90;;
44376;SDS011;30093;0.000;0.000;2022-11-11T04:50:07;67.32;;;39.25;;
44376;SDS011;30093;0.000;0.000;2022-11-11T04:54:15;60.80;;;38.35;;
44376;SDS011;30093;0.000;0.000;2022-11-11T04:58:23;60.45;;;38.42;;
44376;SDS011;30093;0.000;0.000;2022-11-11T05:02:33;66.85;;;41.70;;
44376;SDS011;30093;0.000;0.000;2022-11-11T05:06:58;59.22;;;37.08;;
44376;SDS011;30093;0.000;0.000;2022-11-11T05:11:24;50.78;;;33.22;;
44376;SDS011;30093;0.000;0.000;2022-11-11T05:15:36;62.65;;;39.42;;
44376;SDS011;30093;0.000;0.000;2022-11-11T05:20:02;56.25;;;35.00;;
44376;SDS011;30093;0.000;0.000;2022-11-11T05:24:28;68.10;;;41.58;;
44376;SDS011;30093;0.000;0.000;2022-11-11T05:28:54;68.63;;;44.60;;
44376;SDS011;30093;0.000;0.000;2022-11-11T05:33:01;64.30;;;39.38;;
44376;SDS011;30093;0.000;0.000;2022-11-11T05:37:08;62.58;;;39.35;;
44376;SDS011;30093;0.000;0.000;2022-11-11T05:41:15;66.20;;;38.60;;
44376;SDS011;30093;0.000;0.000;2022-11-11T05:45:22;54.85;;;35.63;;
44376;SDS011;30093;0.000;0.000;2022-11-11T05:49:29;51.83;;;33.25;;
44376;SDS011;30093;0.000;0.000;2022-11-11T05:53:37;50.90;;;32.67;;
44376;SDS011;30093;0.000;0.000;2022-11-11T05:57:44;57.72;;;36.58;;
44376;SDS011;30093;0.000;0.000;2022-11-11T06:01:51;56.75;;;33.53;;
44376;SDS011;30093;0.000;0.000;2022-11-11T06:05:57;59.00;;;36.15;;
44376;SDS011;30093;0.000;0.000;2022-11-11T06:10:04;57.58;;;33.72;;
44376;SDS011;30093;0.000;0.000;2022-11-11T06:14:30;54.75;;;33.28;;
44376;SDS011;30093;0.000;0.000;2022-11-11T06:18:37;47.30;;;32.05;;
44376;SDS011;30093;0.000;0.000;2022-11-11T06:22:44;52.28;;;33.63;;
44376;SDS011;30093;0.000;0.000;2022-11-11T06:27:03;47.40;;;32.83;;
44376;SDS011;30093;0.000;0.000;2022-11-11T06:31:10;59.30;;;34.92;;
44376;SDS011;30093;0.000;0.000;2022-11-11T06:35:19;56.92;;;34.75;;
44376;SDS011;30093;0.000;0.000;2022-11-11T06:39:26;45.25;;;29.65;;
44376;SDS011;30093;0.000;0.000;2022-11-11T06:43:33;49.63;;;32.95;;
44376;SDS011;30093;0.000;0.000;2022-11-11T06:47:41;52.95;;;33.65;;
44376;SDS011;30093;0.000;0.000;2022-11-11T06:51:48;48.28;;;29.88;;
44376;SDS011;30093;0.000;0.000;2022-11-11T06:55:55;49.55;;;31.33;;
44376;SDS011;30093;0.000;0.000;2022-11-11T07:00:04;51.70;;;32.80;;
44376;SDS011;30093;0.000;0.000;2022-11-11T07:04:12;51.45;;;32.00;;
44376;SDS011;30093;0.000;0.000;2022-11-11T07:08:19;61.03;;;32.85;;
44376;SDS011;30093;0.000;0.000;2022-11-11T07:12:26;49.70;;;34.15;;
44376;SDS011;30093;0.000;0.000;2022-11-11T07:16:33;52.58;;;33.67;;
44376;SDS011;30093;0.000;0.000;2022-11-11T07:20:39;46.47;;;30.15;;
44376;SDS011;30093;0.000;0.000;2022-11-11T07:24:46;54.33;;;34.97;;
44376;SDS011;30093;0.000;0.000;2022-11-11T07:28:53;46.35;;;29.13;;
44376;SDS011;30093;0.000;0.000;2022-11-11T07:33:00;41.50;;;28.75;;
44376;SDS011;30093;0.000;0.000;2022-11-11T07:37:07;43.17;;;30.40;;
44376;SDS011;30093;0.000;0.000;2022-11-11T07:41:14;47.35;;;29.17;;
44376;SDS011;30093;0.000;0.000;2022-11-11T07:45:21;39.70;;;27.95;;
44376;SDS011;30093;0.000;0.000;2022-11-11T07:49:28;43.17;;;28.48;;
44376;SDS011;30093;0.000;0.000;2022-11-11T07:53:35;42.90;;;29.92;;
44376;SDS011;30093;0.000;0.000;2022-11-11T07:57:42;40.08;;;27.85;;
44376;SDS011;30093;0.000;0.000;2022-11-11T08:01:49;38.08;;;27.27;;
44376;SDS011;30093;0.000;0.000;2022-11-11T08:05:56;37.75;;;26.00;;
44376;SDS011;30093;0.000;0.000;2022-11-11T08:10:03;38.88;;;28.38;;
44376;SDS011;30093;0.000;0.000;2022-11-11T08:14:16;39.50;;;25.95;;
44376;SDS011;30093;0.000;0.000;2022-11-11T08:18:27;39.08;;;27.13;;
44376;SDS011;30093;0.000;0.000;2022-11-11T08:22:35;50.40;;;34.65;;
44376;SDS011;30093;0.000;0.000;2022-11-11T08:26:45;39.30;;;26.77;;
44376;SDS011;30093;0.000;0.000;2022-11-11T08:30:52;42.22;;;29.05;;
44376;SDS011;30093;0.000;0.000;2022-11-11T08:35:01;40.35;;;27.95;;
44376;SDS011;30093;0.000;0.000;2022-11-11T08:39:08;38.85;;;28.98;;
44376;SDS011;30093;0.000;0.000;2022-11-11T08:43:17;38.38;;;27.95;;
44376;SDS011;30093;0.000;0.000;2022-11-11T08:47:25;42.28;;;28.27;;
44376;SDS011;30093;0.000;0.000;2022-11-11T08:51:32;43.03;;;27.17;;
44376;SDS011;30093;0.000;0.000;2022-11-11T08:55:39;44.88;;;27.83;;
44376;SDS011;30093;0.000;0.000;2022-11-11T08:59:47;39.80;;;27.90;;
44376;SDS011;30093;0.000;0.000;2022-11-11T09:03:56;38.95;;;25.65;;
44376;SDS011;30093;0.000;0.000;2022-11-11T09:08:04;36.13;;;26.10;;
44376;SDS011;30093;0.000;0.000;2022-11-11T09:12:12;36.20;;;25.50;;
44376;SDS011;30093;0.000;0.000;2022-11-11T09:16:19;38.28;;;26.33;;
44376;SDS011;30093;0.000;0.000;2022-11-11T09:20:26;35.05;;;25.83;;
44376;SDS011;30093;0.000;0.000;2022-11-11T09:24:33;34.00;;;24.95;;
44376;SDS011;30093;0.000;0.000;2022-11-11T09:28:40;35.13;;;23.67;;
44376;SDS011;30093;0.000;0.000;2022-11-11T09:32:47;35.65;;;24.25;;
44376;SDS011;30093;0.000;0.000;2022-11-11T09:36:54;37.88;;;25.60;;
44376;SDS011;30093;0.000;0.000;2022-11-11T09:41:08;39.72;;;27.25;;
44376;SDS011;30093;0.000;0.000;2022-11-11T09:49:56;30.83;;;22.30;;
44376;SDS011;30093;0.000;0.000;2022-11-11T09:54:14;31.70;;;23.08;;
44376;SDS011;30093;0.000;0.000;2022-11-11T09:58:35;32.58;;;23.73;;
44376;SDS011;30093;0.000;0.000;2022-11-11T10:07:35;59.92;;;36.30;;
44376;SDS011;30093;0.000;0.000;2022-11-11T10:11:56;37.50;;;24.00;;
44376;SDS011;30093;0.000;0.000;2022-11-11T10:20:29;156.23;;;106.70;;
44376;SDS011;30093;0.000;0.000;2022-11-11T10:24:40;52.17;;;42.15;;
44376;SDS011;30093;0.000;0.000;2022-11-11T10:28:51;28.55;;;21.80;;
44376;SDS011;30093;0.000;0.000;2022-11-11T10:32:59;30.63;;;20.35;;
44376;SDS011;30093;0.000;0.000;2022-11-11T10:37:22;47.10;;;30.90;;
44376;SDS011;30093;0.000;0.000;2022-11-11T10:45:42;100.47;;;62.63;;
44376;SDS011;30093;0.000;0.000;2022-11-11T10:50:06;33.10;;;20.17;;
44376;SDS011;30093;0.000;0.000;2022-11-11T10:54:19;24.52;;;18.38;;
44376;SDS011;30093;0.000;0.000;2022-11-11T10:58:40;27.65;;;18.73;;
44376;SDS011;30093;0.000;0.000;2022-11-11T11:02:56;25.95;;;19.27;;
44376;SDS011;30093;0.000;0.000;2022-11-11T11:07:07;30.38;;;20.33;;
44376;SDS011;30093;0.000;0.000;2022-11-11T11:11:30;25.60;;;18.67;;
44376;SDS011;30093;0.000;0.000;2022-11-11T11:15:43;25.20;;;18.23;;
44376;SDS011;30093;0.000;0.000;2022-11-11T11:20:08;30.90;;;21.25;;
44376;SDS011;30093;0.000;0.000;2022-11-11T11:24:20;28.48;;;22.70;;
44376;SDS011;30093;0.000;0.000;2022-11-11T11:33:10;27.17;;;20.60;;
44376;SDS011;30093;0.000;0.000;2022-11-11T11:37:20;25.40;;;19.23;;
44376;SDS011;30093;0.000;0.000;2022-11-11T11:45:52;31.17;;;24.73;;
44376;SDS011;30093;0.000;0.000;2022-11-11T11:54:55;25.97;;;19.03;;
44376;SDS011;30093;0.000;0.000;2022-11-11T12:04:02;23.83;;;15.77;;
44376;SDS011;30093;0.000;0.000;2022-11-11T12:26:52;20.70;;;13.73;;
44376;SDS011;30093;0.000;0.000;2022-11-11T12:44:24;21.58;;;16.55;;
44376;SDS011;30093;0.000;0.000;2022-11-11T12:57:33;28.30;;;18.90;;
44376;SDS011;30093;0.000;0.000;2022-11-11T13:15:38;31.90;;;19.63;;
44376;SDS011;30093;0.000;0.000;2022-11-11T13:19:48;30.17;;;18.30;;
44376;SDS011;30093;0.000;0.000;2022-11-11T13:24:08;26.38;;;16.92;;
44376;SDS011;30093;0.000;0.000;2022-11-11T13:28:22;28.38;;;17.58;;
44376;SDS011;30093;0.000;0.000;2022-11-11T13:32:41;28.70;;;18.33;;
44376;SDS011;30093;0.000;0.000;2022-11-11T13:37:08;33.45;;;22.67;;
44376;SDS011;30093;0.000;0.000;2022-11-11T13:41:31;55.30;;;35.47;;
44376;SDS011;30093;0.000;0.000;2022-11-11T13:45:48;26.77;;;20.10;;
44376;SDS011;30093;0.000;0.000;2022-11-11T13:49:59;39.85;;;25.10;;
44376;SDS011;30093;0.000;0.000;2022-11-11T13:54:27;25.33;;;19.05;;
44376;SDS011;30093;0.000;0.000;2022-11-11T13:58:36;24.92;;;17.55;;
44376;SDS011;30093;0.000;0.000;2022-11-11T14:02:45;29.70;;;19.58;;
44376;SDS011;30093;0.000;0.000;2022-11-11T14:06:52;28.25;;;17.95;;
44376;SDS011;30093;0.000;0.000;2022-11-11T14:10:59;25.70;;;17.17;;
44376;SDS011;30093;0.000;0.000;2022-11-11T14:19:57;29.98;;;17.90;;
44376;SDS011;30093;0.000;0.000;2022-11-11T14:24:05;19.33;;;15.02;;
44376;SDS011;30093;0.000;0.000;2022-11-11T14:28:21;24.85;;;16.23;;
44376;SDS011;30093;0.000;0.000;2022-11-11T14:37:20;22.35;;;15.75;;
44376;SDS011;30093;0.000;0.000;2022-11-11T14:41:40;24.60;;;15.15;;
44376;SDS011;30093;0.000;0.000;2022-11-11T14:45:51;22.80;;;14.40;;
44376;SDS011;30093;0.000;0.000;2022-11-11T14:49:59;26.40;;;17.13;;
44376;SDS011;30093;0.000;0.000;2022-11-11T14:54:14;19.20;;;14.65;;
44376;SDS011;30093;0.000;0.000;2022-11-11T14:58:32;19.05;;;13.88;;
44376;SDS011;30093;0.000;0.000;2022-11-11T15:07:04;24.20;;;14.25;;
44376;SDS011;30093;0.000;0.000;2022-11-11T15:11:50;22.90;;;14.35;;
44376;SDS011;30093;0.000;0.000;2022-11-11T15:21:03;37.42;;;20.58;;
44376;SDS011;30093;0.000;0.000;2022-11-11T15:35:08;33.10;;;23.33;;
44376;SDS011;30093;0.000;0.000;2022-11-11T15:38:38;45.38;;;29.27;;
44376;SDS011;30093;0.000;0.000;2022-11-11T15:42:45;51.35;;;36.92;;
44376;SDS011;30093;0.000;0.000;2022-11-11T15:46:54;41.72;;;25.73;;
44376;SDS011;30093;0.000;0.000;2022-11-11T15:51:15;42.95;;;26.70;;
44376;SDS011;30093;0.000;0.000;2022-11-11T15:55:31;63.47;;;34.97;;
44376;SDS011;30093;0.000;0.000;2022-11-11T15:59:39;72.55;;;41.78;;
44376;SDS011;30093;0.000;0.000;2022-11-11T16:03:46;75.80;;;42.80;;
44376;SDS011;30093;0.000;0.000;2022-11-11T16:08:00;57.83;;;34.17;;
44376;SDS011;30093;0.000;0.000;2022-11-11T16:12:11;76.85;;;46.70;;
44376;SDS011;30093;0.000;0.000;2022-11-11T16:16:23;76.88;;;48.65;;
44376;SDS011;30093;0.000;0.000;2022-11-11T16:20:48;74.57;;;46.80;;
44376;SDS011;30093;0.000;0.000;2022-11-11T16:25:10;115.20;;;67.20;;
44376;SDS011;30093;0.000;0.000;2022-11-11T16:29:20;124.75;;;70.78;;
44376;SDS011;30093;0.000;0.000;2022-11-11T16:37:50;76.20;;;51.75;;
44376;SDS011;30093;0.000;0.000;2022-11-11T16:42:01;85.75;;;53.47;;
44376;SDS011;30093;0.000;0.000;2022-11-11T16:50:51;73.68;;;47.58;;
44376;SDS011;30093;0.000;0.000;2022-11-11T16:55:04;63.92;;;39.70;;
44376;SDS011;30093;0.000;0.000;2022-11-11T16:59:13;70.53;;;44.83;;
44376;SDS011;30093;0.000;0.000;2022-11-11T17:03:31;67.25;;;46.05;;
44376;SDS011;30093;0.000;0.000;2022-11-11T17:07:39;59.75;;;38.97;;
44376;SDS011;30093;0.000;0.000;2022-11-11T17:11:47;55.65;;;35.05;;
44376;SDS011;30093;0.000;0.000;2022-11-11T17:15:55;54.97;;;37.60;;
44376;SDS011;30093;0.000;0.000;2022-11-11T17:20:12;64.13;;;40.50;;
44376;SDS011;30093;0.000;0.000;2022-11-11T17:24:20;90.82;;;57.03;;
44376;SDS011;30093;0.000;0.000;2022-11-11T17:28:30;398.85;;;189.02;;
44376;SDS011;30093;0.000;0.000;2022-11-11T17:32:40;201.50;;;105.20;;
44376;SDS011;30093;0.000;0.000;2022-11-11T17:36:47;138.75;;;83.53;;
44376;SDS011;30093;0.000;0.000;2022-11-11T17:40:54;143.32;;;98.15;;
44376;SDS011;30093;0.000;0.000;2022-11-11T17:45:00;122.30;;;87.28;;
44376;SDS011;30093;0.000;0.000;2022-11-11T17:49:07;82.53;;;55.80;;
44376;SDS011;30093;0.000;0.000;2022-11-11T17:53:15;72.28;;;48.78;;
44376;SDS011;30093;0.000;0.000;2022-11-11T17:57:21;81.95;;;49.92;;
44376;SDS011;30093;0.000;0.000;2022-11-11T18:01:28;75.90;;;47.75;;
44376;SDS011;30093;0.000;0.000;2022-11-11T18:05:36;77.90;;;47.75;;
44376;SDS011;30093;0.000;0.000;2022-11-11T18:09:43;73.18;;;44.40;;
44376;SDS011;30093;0.000;0.000;2022-11-11T18:13:50;133.02;;;79.47;;
44376;SDS011;30093;0.000;0.000;2022-11-11T18:17:57;77.63;;;51.30;;
44376;SDS011;30093;0.000;0.000;2022-11-11T18:22:04;90.18;;;53.78;;
44376;SDS011;30093;0.000;0.000;2022-11-11T18:26:11;70.82;;;45.38;;
44376;SDS011;30093;0.000;0.000;2022-11-11T18:30:18;71.93;;;48.10;;
44376;SDS011;30093;0.000;0.000;2022-11-11T18:34:27;75.03;;;47.38;;
44376;SDS011;30093;0.000;0.000;2022-11-11T18:38:34;78.20;;;50.08;;
44376;SDS011;30093;0.000;0.000;2022-11-11T18:42:42;94.75;;;58.28;;
44376;SDS011;30093;0.000;0.000;2022-11-11T18:46:49;88.28;;;58.20;;
44376;SDS011;30093;0.000;0.000;2022-11-11T18:50:56;98.68;;;61.67;;
44376;SDS011;30093;0.000;0.000;2022-11-11T18:55:03;89.10;;;53.47;;
44376;SDS011;30093;0.000;0.000;2022-11-11T18:59:09;96.65;;;55.63;;
44376;SDS011;30093;0.000;0.000;2022-11-11T19:03:17;85.50;;;54.20;;
44376;SDS011;30093;0.000;0.000;2022-11-11T19:07:23;86.28;;;53.03;;
44376;SDS011;30093;0.000;0.000;2022-11-11T19:11:30;147.77;;;89.22;;
44376;SDS011;30093;0.000;0.000;2022-11-11T19:15:40;108.00;;;66.72;;
44376;SDS011;30093;0.000;0.000;2022-11-11T19:19:47;89.55;;;50.35;;
44376;SDS011;30093;0.000;0.000;2022-11-11T19:23:57;87.82;;;56.65;;
44376;SDS011;30093;0.000;0.000;2022-11-11T19:28:04;99.95;;;63.72;;
44376;SDS011;30093;0.000;0.000;2022-11-11T19:32:14;92.77;;;53.93;;
44376;SDS011;30093;0.000;0.000;2022-11-11T19:36:21;67.88;;;44.25;;
44376;SDS011;30093;0.000;0.000;2022-11-11T19:40:32;72.85;;;45.25;;
44376;SDS011;30093;0.000;0.000;2022-11-11T19:44:38;67.38;;;43.75;;
44376;SDS011;30093;0.000;0.000;2022-11-11T19:48:46;74.28;;;45.85;;
44376;SDS011;30093;0.000;0.000;2022-11-11T19:52:53;71.28;;;42.60;;
44376;SDS011;30093;0.000;0.000;2022-11-11T19:57:01;71.50;;;44.00;;
44376;SDS011;30093;0.000;0.000;2022-11-11T20:01:12;67.60;;;43.83;;
44376;SDS011;30093;0.000;0.000;2022-11-11T20:05:29;67.13;;;43.67;;
44376;SDS011;30093;0.000;0.000;2022-11-11T20:09:40;67.35;;;44.65;;
44376;SDS011;30093;0.000;0.000;2022-11-11T20:13:48;70.45;;;44.22;;
44376;SDS011;30093;0.000;0.000;2022-11-11T20:17:55;65.97;;;41.83;;
44376;SDS011;30093;0.000;0.000;2022-11-11T20:22:01;68.35;;;43.90;;
44376;SDS011;30093;0.000;0.000;2022-11-11T20:26:12;66.20;;;41.40;;
44376;SDS011;30093;0.000;0.000;2022-11-11T20:30:19;72.82;;;42.63;;
44376;SDS011;30093;0.000;0.000;2022-11-11T20:34:27;65.55;;;42.28;;
44376;SDS011;30093;0.000;0.000;2022-11-11T20:38:33;66.13;;;43.25;;
44376;SDS011;30093;0.000;0.000;2022-11-11T20:42:40;64.78;;;40.88;;
44376;SDS011;30093;0.000;0.000;2022-11-11T20:46:47;59.40;;;38.72;;
44376;SDS011;30093;0.000;0.000;2022-11-11T20:51:05;61.08;;;40.17;;
44376;SDS011;30093;0.000;0.000;2022-11-11T20:55:14;66.10;;;42.00;;
44376;SDS011;30093;0.000;0.000;2022-11-11T20:59:20;69.70;;;42.30;;
44376;SDS011;30093;0.000;0.000;2022-11-11T21:03:28;65.93;;;40.60;;
44376;SDS011;30093;0.000;0.000;2022-11-11T21:07:37;63.65;;;39.70;;
44376;SDS011;30093;0.000;0.000;2022-11-11T21:11:43;63.10;;;41.33;;
44376;SDS011;30093;0.000;0.000;2022-11-11T21:15:50;71.10;;;43.78;;
44376;SDS011;30093;0.000;0.000;2022-11-11T21:19:56;66.75;;;42.20;;
44376;SDS011;30093;0.000;0.000;2022-11-11T21:24:06;67.47;;;40.90;;
44376;SDS011;30093;0.000;0.000;2022-11-11T21:28:14;68.15;;;42.45;;
44376;SDS011;30093;0.000;0.000;2022-11-11T21:32:20;64.43;;;40.83;;
44376;SDS011;30093;0.000;0.000;2022-11-11T21:36:29;76.80;;;42.33;;
44376;SDS011;30093;0.000;0.000;2022-11-11T21:40:38;71.35;;;47.17;;
44376;SDS011;30093;0.000;0.000;2022-11-11T21:44:45;92.97;;;62.40;;
44376;SDS011;30093;0.000;0.000;2022-11-11T21:48:52;90.25;;;60.25;;
44376;SDS011;30093;0.000;0.000;2022-11-11T21:52:59;89.70;;;57.08;;
44376;SDS011;30093;0.000;0.000;2022-11-11T21:57:06;89.70;;;52.20;;
44376;SDS011;30093;0.000;0.000;2022-11-11T22:01:14;107.18;;;67.57;;
44376;SDS011;30093;0.000;0.000;2022-11-11T22:05:25;83.97;;;50.95;;
44376;SDS011;30093;0.000;0.000;2022-11-11T22:09:31;93.07;;;53.15;;
44376;SDS011;30093;0.000;0.000;2022-11-11T22:13:39;98.78;;;58.70;;
44376;SDS011;30093;0.000;0.000;2022-11-11T22:17:46;81.57;;;48.42;;
44376;SDS011;30093;0.000;0.000;2022-11-11T22:21:56;87.55;;;52.47;;
44376;SDS011;30093;0.000;0.000;2022-11-11T22:26:07;85.65;;;54.08;;
44376;SDS011;30093;0.000;0.000;2022-11-11T22:30:15;79.60;;;50.70;;
44376;SDS011;30093;0.000;0.000;2022-11-11T22:34:22;84.65;;;51.13;;
44376;SDS011;30093;0.000;0.000;2022-11-11T22:38:29;78.13;;;47.67;;
44376;SDS011;30093;0.000;0.000;2022-11-11T22:42:36;80.03;;;55.40;;
44376;SDS011;30093;0.000;0.000;2022-11-11T22:46:44;71.07;;;46.17;;
44376;SDS011;30093;0.000;0.000;2022-11-11T22:50:52;77.18;;;47.30;;
44376;SDS011;30093;0.000;0.000;2022-11-11T22:54:58;75.93;;;48.13;;
44376;SDS011;30093;0.000;0.000;2022-11-11T22:59:05;71.55;;;43.95;;
44376;SDS011;30093;0.000;0.000;2022-11-11T23:03:11;111.22;;;57.28;;
44376;SDS011;30093;0.000;0.000;2022-11-11T23:07:19;213.85;;;101.75;;
44376;SDS011;30093;0.000;0.000;2022-11-11T23:11:29;174.35;;;84.22;;
44376;SDS011;30093;0.000;0.000;2022-11-11T23:15:37;252.23;;;117.85;;
44376;SDS011;30093;0.000;0.000;2022-11-11T23:19:44;183.00;;;86.95;;
44376;SDS011;30093;0.000;0.000;2022-11-11T23:23:50;233.15;;;105.18;;
44376;SDS011;30093;0.000;0.000;2022-11-11T23:27:58;211.38;;;101.32;;
44376;SDS011;30093;0.000;0.000;2022-11-11T23:32:04;540.63;;;251.13;;
44376;SDS011;30093;0.000;0.000;2022-11-11T23:36:11;294.00;;;136.93;;
44376;SDS011;30093;0.000;0.000;2022-11-11T23:40:19;173.70;;;87.05;;
44376;SDS011;30093;0.000;0.000;2022-11-11T23:44:27;245.45;;;121.35;;
44376;SDS011;30093;0.000;0.000;2022-11-11T23:48:34;274.70;;;131.23;;
44376;SDS011;30093;0.000;0.000;2022-11-11T23:52:41;291.98;;;138.75;;
44376;SDS011;30093;0.000;0.000;2022-11-11T23:56:49;247.35;;;121.65;;
